sensor_id;sensor_type;location;lat;lon;timestamp;P1;durP1;ratioP1;P2;durP2;ratioP2
54665;SDS011;40566;50.006;36.180;2022-11-21T00:01:50;5.20;;;1.92;;
54665;SDS011;40566;50.006;36.180;2022-11-21T00:06:50;6.60;;;2.20;;
54665;SDS011;40566;50.006;36.180;2022-11-21T00:11:51;5.65;;;2.80;;
54665;SDS011;40566;50.006;36.180;2022-11-21T00:16:52;4.25;;;1.88;;
54665;SDS011;40566;50.006;36.180;2022-11-21T00:21:53;6.53;;;2.53;;
54665;SDS011;40566;50.006;36.180;2022-11-21T00:26:53;6.15;;;2.25;;
54665;SDS011;40566;50.006;36.180;2022-11-21T00:31:54;5.80;;;2.15;;
54665;SDS011;40566;50.006;36.180;2022-11-21T00:36:54;5.55;;;2.40;;
54665;SDS011;40566;50.006;36.180;2022-11-21T00:41:55;4.55;;;1.65;;
54665;SDS011;40566;50.006;36.180;2022-11-21T00:46:56;5.18;;;2.38;;
54665;SDS011;40566;50.006;36.180;2022-11-21T00:51:56;6.78;;;2.72;;
54665;SDS011;40566;50.006;36.180;2022-11-21T00:56:57;7.80;;;2.92;;
54665;SDS011;40566;50.006;36.180;2022-11-21T01:01:57;7.45;;;3.10;;
54665;SDS011;40566;50.006;36.180;2022-11-21T01:06:58;7.13;;;2.83;;
54665;SDS011;40566;50.006;36.180;2022-11-21T01:11:59;8.88;;;4.13;;
54665;SDS011;40566;50.006;36.180;2022-11-21T01:16:59;6.30;;;2.65;;
54665;SDS011;40566;50.006;36.180;2022-11-21T01:22:00;4.60;;;1.65;;
54665;SDS011;40566;50.006;36.180;2022-11-21T01:27:01;9.02;;;2.33;;
54665;SDS011;40566;50.006;36.180;2022-11-21T01:32:01;9.60;;;3.30;;
54665;SDS011;40566;50.006;36.180;2022-11-21T01:37:02;5.68;;;2.20;;
54665;SDS011;40566;50.006;36.180;2022-11-21T01:42:02;5.07;;;1.73;;
54665;SDS011;40566;50.006;36.180;2022-11-21T01:47:03;8.70;;;2.60;;
54665;SDS011;40566;50.006;36.180;2022-11-21T01:52:05;7.72;;;3.30;;
54665;SDS011;40566;50.006;36.180;2022-11-21T01:57:32;3.00;;;1.50;;
54665;SDS011;40566;50.006;36.180;2022-11-21T02:02:43;2.75;;;1.40;;
54665;SDS011;40566;50.006;36.180;2022-11-21T02:07:47;6.10;;;2.28;;
54665;SDS011;40566;50.006;36.180;2022-11-21T02:12:50;6.07;;;2.17;;
54665;SDS011;40566;50.006;36.180;2022-11-21T02:17:52;8.73;;;3.22;;
54665;SDS011;40566;50.006;36.180;2022-11-21T02:28:29;6.65;;;2.63;;
54665;SDS011;40566;50.006;36.180;2022-11-21T02:33:30;8.82;;;3.03;;
54665;SDS011;40566;50.006;36.180;2022-11-21T02:38:32;5.97;;;2.20;;
54665;SDS011;40566;50.006;36.180;2022-11-21T02:43:54;6.50;;;2.30;;
54665;SDS011;40566;50.006;36.180;2022-11-21T02:49:03;4.00;;;1.45;;
54665;SDS011;40566;50.006;36.180;2022-11-21T02:54:06;3.90;;;1.58;;
54665;SDS011;40566;50.006;36.180;2022-11-21T02:59:07;8.15;;;3.35;;
54665;SDS011;40566;50.006;36.180;2022-11-21T03:04:08;12.48;;;4.63;;
54665;SDS011;40566;50.006;36.180;2022-11-21T03:09:08;8.02;;;2.92;;
54665;SDS011;40566;50.006;36.180;2022-11-21T03:14:09;4.25;;;1.58;;
54665;SDS011;40566;50.006;36.180;2022-11-21T03:19:09;2.70;;;1.10;;
54665;SDS011;40566;50.006;36.180;2022-11-21T03:24:10;3.25;;;1.27;;
54665;SDS011;40566;50.006;36.180;2022-11-21T03:29:11;2.92;;;1.10;;
54665;SDS011;40566;50.006;36.180;2022-11-21T03:34:11;2.70;;;1.10;;
54665;SDS011;40566;50.006;36.180;2022-11-21T03:39:12;7.53;;;3.08;;
54665;SDS011;40566;50.006;36.180;2022-11-21T03:44:12;5.30;;;2.28;;
54665;SDS011;40566;50.006;36.180;2022-11-21T03:49:13;2.67;;;1.00;;
54665;SDS011;40566;50.006;36.180;2022-11-21T03:54:15;3.03;;;1.10;;
54665;SDS011;40566;50.006;36.180;2022-11-21T03:59:16;2.35;;;0.98;;
54665;SDS011;40566;50.006;36.180;2022-11-21T04:04:17;4.88;;;1.67;;
54665;SDS011;40566;50.006;36.180;2022-11-21T04:09:17;2.30;;;1.13;;
54665;SDS011;40566;50.006;36.180;2022-11-21T04:14:18;4.18;;;1.40;;
54665;SDS011;40566;50.006;36.180;2022-11-21T04:19:18;3.92;;;1.45;;
54665;SDS011;40566;50.006;36.180;2022-11-21T04:24:20;6.38;;;1.70;;
54665;SDS011;40566;50.006;36.180;2022-11-21T04:29:20;8.10;;;2.55;;
54665;SDS011;40566;50.006;36.180;2022-11-21T04:34:21;10.13;;;2.92;;
54665;SDS011;40566;50.006;36.180;2022-11-21T04:39:22;3.25;;;1.40;;
54665;SDS011;40566;50.006;36.180;2022-11-21T04:44:22;10.25;;;3.05;;
54665;SDS011;40566;50.006;36.180;2022-11-21T04:49:23;3.78;;;1.42;;
54665;SDS011;40566;50.006;36.180;2022-11-21T04:54:23;6.45;;;1.80;;
54665;SDS011;40566;50.006;36.180;2022-11-21T04:59:24;2.40;;;1.10;;
54665;SDS011;40566;50.006;36.180;2022-11-21T05:04:25;4.05;;;1.48;;
54665;SDS011;40566;50.006;36.180;2022-11-21T05:09:25;10.27;;;4.50;;
54665;SDS011;40566;50.006;36.180;2022-11-21T05:14:26;4.13;;;1.52;;
54665;SDS011;40566;50.006;36.180;2022-11-21T05:19:26;6.90;;;2.63;;
54665;SDS011;40566;50.006;36.180;2022-11-21T05:24:27;15.13;;;5.40;;
54665;SDS011;40566;50.006;36.180;2022-11-21T05:29:28;15.60;;;6.35;;
54665;SDS011;40566;50.006;36.180;2022-11-21T05:34:28;16.23;;;5.78;;
54665;SDS011;40566;50.006;36.180;2022-11-21T05:39:29;15.95;;;6.57;;
54665;SDS011;40566;50.006;36.180;2022-11-21T05:44:29;8.43;;;3.22;;
54665;SDS011;40566;50.006;36.180;2022-11-21T05:49:30;8.52;;;3.42;;
54665;SDS011;40566;50.006;36.180;2022-11-21T05:54:31;4.57;;;2.05;;
54665;SDS011;40566;50.006;36.180;2022-11-21T05:59:31;5.15;;;1.85;;
54665;SDS011;40566;50.006;36.180;2022-11-21T06:04:33;4.68;;;1.85;;
54665;SDS011;40566;50.006;36.180;2022-11-21T06:09:34;2.70;;;1.35;;
54665;SDS011;40566;50.006;36.180;2022-11-21T06:14:34;6.28;;;2.13;;
54665;SDS011;40566;50.006;36.180;2022-11-21T06:19:35;7.05;;;2.53;;
54665;SDS011;40566;50.006;36.180;2022-11-21T06:24:36;14.55;;;5.95;;
54665;SDS011;40566;50.006;36.180;2022-11-21T06:29:36;13.88;;;5.10;;
54665;SDS011;40566;50.006;36.180;2022-11-21T06:34:37;18.33;;;7.70;;
54665;SDS011;40566;50.006;36.180;2022-11-21T06:39:37;18.23;;;9.25;;
54665;SDS011;40566;50.006;36.180;2022-11-21T06:44:38;12.13;;;5.30;;
54665;SDS011;40566;50.006;36.180;2022-11-21T06:49:38;14.10;;;6.57;;
54665;SDS011;40566;50.006;36.180;2022-11-21T06:54:39;9.35;;;3.10;;
54665;SDS011;40566;50.006;36.180;2022-11-21T06:59:40;12.13;;;3.97;;
54665;SDS011;40566;50.006;36.180;2022-11-21T07:04:40;9.15;;;3.33;;
54665;SDS011;40566;50.006;36.180;2022-11-21T07:09:41;9.73;;;4.03;;
54665;SDS011;40566;50.006;36.180;2022-11-21T07:14:44;6.35;;;2.30;;
54665;SDS011;40566;50.006;36.180;2022-11-21T07:19:44;4.03;;;1.95;;
54665;SDS011;40566;50.006;36.180;2022-11-21T07:24:45;4.60;;;2.03;;
54665;SDS011;40566;50.006;36.180;2022-11-21T07:29:45;8.30;;;2.47;;
54665;SDS011;40566;50.006;36.180;2022-11-21T07:34:46;5.45;;;2.10;;
54665;SDS011;40566;50.006;36.180;2022-11-21T07:39:46;6.85;;;2.35;;
54665;SDS011;40566;50.006;36.180;2022-11-21T07:44:47;7.38;;;2.85;;
54665;SDS011;40566;50.006;36.180;2022-11-21T07:49:48;8.93;;;2.95;;
54665;SDS011;40566;50.006;36.180;2022-11-21T07:54:48;6.80;;;2.60;;
54665;SDS011;40566;50.006;36.180;2022-11-21T07:59:49;6.30;;;2.60;;
54665;SDS011;40566;50.006;36.180;2022-11-21T08:04:50;8.68;;;3.03;;
54665;SDS011;40566;50.006;36.180;2022-11-21T08:09:51;8.23;;;2.85;;
54665;SDS011;40566;50.006;36.180;2022-11-21T08:14:51;13.38;;;4.30;;
54665;SDS011;40566;50.006;36.180;2022-11-21T08:19:52;6.85;;;2.40;;
54665;SDS011;40566;50.006;36.180;2022-11-21T08:24:53;6.63;;;2.45;;
54665;SDS011;40566;50.006;36.180;2022-11-21T08:29:53;7.22;;;2.42;;
54665;SDS011;40566;50.006;36.180;2022-11-21T08:34:54;8.30;;;3.17;;
54665;SDS011;40566;50.006;36.180;2022-11-21T08:39:55;8.15;;;2.92;;
54665;SDS011;40566;50.006;36.180;2022-11-21T08:44:58;12.25;;;4.97;;
54665;SDS011;40566;50.006;36.180;2022-11-21T08:49:58;10.02;;;4.70;;
54665;SDS011;40566;50.006;36.180;2022-11-21T08:54:59;6.90;;;2.47;;
54665;SDS011;40566;50.006;36.180;2022-11-21T08:59:59;6.22;;;2.33;;
54665;SDS011;40566;50.006;36.180;2022-11-21T09:05:00;7.50;;;2.95;;
54665;SDS011;40566;50.006;36.180;2022-11-21T09:10:01;8.88;;;3.40;;
54665;SDS011;40566;50.006;36.180;2022-11-21T09:15:02;10.90;;;4.30;;
54665;SDS011;40566;50.006;36.180;2022-11-21T09:20:22;10.98;;;4.07;;
54665;SDS011;40566;50.006;36.180;2022-11-21T09:25:22;7.38;;;3.30;;
54665;SDS011;40566;50.006;36.180;2022-11-21T09:30:23;9.70;;;3.22;;
54665;SDS011;40566;50.006;36.180;2022-11-21T09:35:24;9.88;;;3.53;;
54665;SDS011;40566;50.006;36.180;2022-11-21T09:40:24;25.85;;;9.25;;
54665;SDS011;40566;50.006;36.180;2022-11-21T09:45:29;39.45;;;12.50;;
54665;SDS011;40566;50.006;36.180;2022-11-21T09:50:34;22.38;;;8.32;;
54665;SDS011;40566;50.006;36.180;2022-11-21T09:55:45;23.98;;;9.20;;
54665;SDS011;40566;50.006;36.180;2022-11-21T10:00:49;17.52;;;7.25;;
54665;SDS011;40566;50.006;36.180;2022-11-21T10:05:55;13.95;;;5.15;;
54665;SDS011;40566;50.006;36.180;2022-11-21T10:11:38;19.05;;;7.45;;
54665;SDS011;40566;50.006;36.180;2022-11-21T10:17:09;8.52;;;3.50;;
54665;SDS011;40566;50.006;36.180;2022-11-21T10:28:04;9.70;;;3.28;;
54665;SDS011;40566;50.006;36.180;2022-11-21T10:33:14;10.40;;;3.55;;
54665;SDS011;40566;50.006;36.180;2022-11-21T10:38:23;8.65;;;3.40;;
54665;SDS011;40566;50.006;36.180;2022-11-21T10:43:30;14.10;;;5.65;;
54665;SDS011;40566;50.006;36.180;2022-11-21T10:49:00;7.70;;;2.75;;
54665;SDS011;40566;50.006;36.180;2022-11-21T10:54:06;8.07;;;2.72;;
54665;SDS011;40566;50.006;36.180;2022-11-21T10:59:28;11.73;;;2.83;;
54665;SDS011;40566;50.006;36.180;2022-11-21T11:04:31;9.40;;;2.72;;
54665;SDS011;40566;50.006;36.180;2022-11-21T11:09:33;7.65;;;3.08;;
54665;SDS011;40566;50.006;36.180;2022-11-21T11:14:34;72.88;;;19.52;;
54665;SDS011;40566;50.006;36.180;2022-11-21T11:19:35;8.57;;;3.63;;
54665;SDS011;40566;50.006;36.180;2022-11-21T11:24:35;20.52;;;4.63;;
54665;SDS011;40566;50.006;36.180;2022-11-21T11:29:47;10.43;;;3.47;;
54665;SDS011;40566;50.006;36.180;2022-11-21T11:45:20;19.80;;;6.43;;
54665;SDS011;40566;50.006;36.180;2022-11-21T11:50:49;58.65;;;16.50;;
54665;SDS011;40566;50.006;36.180;2022-11-21T12:01:03;21.08;;;7.18;;
54665;SDS011;40566;50.006;36.180;2022-11-21T12:06:16;19.45;;;4.60;;
54665;SDS011;40566;50.006;36.180;2022-11-21T12:11:25;11.35;;;4.18;;
54665;SDS011;40566;50.006;36.180;2022-11-21T12:16:51;13.13;;;3.70;;
54665;SDS011;40566;50.006;36.180;2022-11-21T12:21:52;14.38;;;5.25;;
54665;SDS011;40566;50.006;36.180;2022-11-21T12:26:55;14.55;;;6.22;;
54665;SDS011;40566;50.006;36.180;2022-11-21T12:32:43;21.65;;;5.45;;
54665;SDS011;40566;50.006;36.180;2022-11-21T12:43:35;29.33;;;10.65;;
54665;SDS011;40566;50.006;36.180;2022-11-21T12:59:35;18.27;;;7.35;;
54665;SDS011;40566;50.006;36.180;2022-11-21T13:04:47;22.83;;;8.68;;
54665;SDS011;40566;50.006;36.180;2022-11-21T13:09:50;27.02;;;10.95;;
54665;SDS011;40566;50.006;36.180;2022-11-21T13:20:14;20.80;;;7.70;;
54665;SDS011;40566;50.006;36.180;2022-11-21T13:25:35;33.38;;;9.85;;
54665;SDS011;40566;50.006;36.180;2022-11-21T13:30:45;38.03;;;14.75;;
54665;SDS011;40566;50.006;36.180;2022-11-21T13:40:50;17.23;;;5.25;;
54665;SDS011;40566;50.006;36.180;2022-11-21T13:46:55;12.45;;;3.80;;
54665;SDS011;40566;50.006;36.180;2022-11-21T13:52:39;14.23;;;4.75;;
54665;SDS011;40566;50.006;36.180;2022-11-21T13:58:11;12.40;;;3.63;;
54665;SDS011;40566;50.006;36.180;2022-11-21T14:14:22;20.92;;;9.15;;
54665;SDS011;40566;50.006;36.180;2022-11-21T14:19:29;18.00;;;8.23;;
54665;SDS011;40566;50.006;36.180;2022-11-21T14:24:31;19.25;;;8.05;;
54665;SDS011;40566;50.006;36.180;2022-11-21T14:29:38;23.35;;;9.65;;
54665;SDS011;40566;50.006;36.180;2022-11-21T14:34:40;88.53;;;28.23;;
54665;SDS011;40566;50.006;36.180;2022-11-21T14:39:40;85.28;;;26.35;;
54665;SDS011;40566;50.006;36.180;2022-11-21T14:44:41;110.30;;;33.47;;
54665;SDS011;40566;50.006;36.180;2022-11-21T14:49:49;93.75;;;30.63;;
54665;SDS011;40566;50.006;36.180;2022-11-21T14:59:58;15.20;;;5.78;;
54665;SDS011;40566;50.006;36.180;2022-11-21T15:05:01;28.10;;;14.98;;
54665;SDS011;40566;50.006;36.180;2022-11-21T15:10:05;20.65;;;8.18;;
54665;SDS011;40566;50.006;36.180;2022-11-21T15:15:51;31.40;;;7.07;;
54665;SDS011;40566;50.006;36.180;2022-11-21T15:20:35;25.08;;;8.63;;
54665;SDS011;40566;50.006;36.180;2022-11-21T15:25:43;33.22;;;14.27;;
54665;SDS011;40566;50.006;36.180;2022-11-21T15:30:45;36.95;;;15.23;;
54665;SDS011;40566;50.006;36.180;2022-11-21T15:35:47;27.30;;;10.30;;
54665;SDS011;40566;50.006;36.180;2022-11-21T15:46:27;49.92;;;22.35;;
54665;SDS011;40566;50.006;36.180;2022-11-21T15:51:39;29.50;;;14.70;;
54665;SDS011;40566;50.006;36.180;2022-11-21T15:56:41;27.45;;;13.70;;
54665;SDS011;40566;50.006;36.180;2022-11-21T16:01:42;35.90;;;18.23;;
54665;SDS011;40566;50.006;36.180;2022-11-21T16:06:42;30.80;;;14.05;;
54665;SDS011;40566;50.006;36.180;2022-11-21T16:11:45;44.38;;;20.90;;
54665;SDS011;40566;50.006;36.180;2022-11-21T16:16:45;21.63;;;9.02;;
54665;SDS011;40566;50.006;36.180;2022-11-21T16:21:47;15.48;;;5.82;;
54665;SDS011;40566;50.006;36.180;2022-11-21T16:26:48;18.23;;;6.10;;
54665;SDS011;40566;50.006;36.180;2022-11-21T16:31:52;20.42;;;7.10;;
54665;SDS011;40566;50.006;36.180;2022-11-21T16:36:55;20.08;;;7.63;;
54665;SDS011;40566;50.006;36.180;2022-11-21T16:41:55;28.17;;;13.27;;
54665;SDS011;40566;50.006;36.180;2022-11-21T16:46:56;25.17;;;11.48;;
54665;SDS011;40566;50.006;36.180;2022-11-21T16:51:57;37.05;;;15.32;;
54665;SDS011;40566;50.006;36.180;2022-11-21T16:56:58;31.45;;;12.45;;
54665;SDS011;40566;50.006;36.180;2022-11-21T17:01:58;38.13;;;15.68;;
54665;SDS011;40566;50.006;36.180;2022-11-21T17:06:59;31.23;;;12.93;;
54665;SDS011;40566;50.006;36.180;2022-11-21T17:12:00;46.47;;;9.60;;
54665;SDS011;40566;50.006;36.180;2022-11-21T17:17:00;35.15;;;13.63;;
54665;SDS011;40566;50.006;36.180;2022-11-21T17:22:02;18.77;;;7.72;;
54665;SDS011;40566;50.006;36.180;2022-11-21T17:27:02;17.08;;;8.05;;
54665;SDS011;40566;50.006;36.180;2022-11-21T17:32:04;34.85;;;10.00;;
54665;SDS011;40566;50.006;36.180;2022-11-21T17:37:05;21.25;;;5.05;;
54665;SDS011;40566;50.006;36.180;2022-11-21T17:42:07;20.00;;;4.78;;
54665;SDS011;40566;50.006;36.180;2022-11-21T17:47:07;22.10;;;5.32;;
54665;SDS011;40566;50.006;36.180;2022-11-21T17:52:08;30.27;;;8.10;;
54665;SDS011;40566;50.006;36.180;2022-11-21T17:57:09;45.85;;;6.78;;
54665;SDS011;40566;50.006;36.180;2022-11-21T18:02:09;25.52;;;7.18;;
54665;SDS011;40566;50.006;36.180;2022-11-21T18:07:11;48.83;;;8.88;;
54665;SDS011;40566;50.006;36.180;2022-11-21T18:12:12;61.90;;;11.15;;
54665;SDS011;40566;50.006;36.180;2022-11-21T18:17:13;38.83;;;7.55;;
54665;SDS011;40566;50.006;36.180;2022-11-21T18:22:13;50.78;;;6.85;;
54665;SDS011;40566;50.006;36.180;2022-11-21T18:27:14;52.95;;;7.07;;
54665;SDS011;40566;50.006;36.180;2022-11-21T18:32:14;76.30;;;7.85;;
54665;SDS011;40566;50.006;36.180;2022-11-21T18:37:15;62.17;;;7.50;;
54665;SDS011;40566;50.006;36.180;2022-11-21T18:42:16;76.07;;;8.55;;
54665;SDS011;40566;50.006;36.180;2022-11-21T18:47:16;80.60;;;13.55;;
54665;SDS011;40566;50.006;36.180;2022-11-21T18:52:17;99.43;;;8.45;;
54665;SDS011;40566;50.006;36.180;2022-11-21T18:57:17;88.07;;;7.85;;
54665;SDS011;40566;50.006;36.180;2022-11-21T19:02:18;67.88;;;9.98;;
54665;SDS011;40566;50.006;36.180;2022-11-21T19:07:18;121.43;;;11.55;;
54665;SDS011;40566;50.006;36.180;2022-11-21T19:12:19;50.45;;;8.85;;
54665;SDS011;40566;50.006;36.180;2022-11-21T19:17:20;121.25;;;10.35;;
54665;SDS011;40566;50.006;36.180;2022-11-21T19:22:21;83.15;;;8.32;;
54665;SDS011;40566;50.006;36.180;2022-11-21T19:27:22;101.50;;;11.13;;
54665;SDS011;40566;50.006;36.180;2022-11-21T19:32:23;149.10;;;12.02;;
54665;SDS011;40566;50.006;36.180;2022-11-21T19:37:24;131.55;;;11.00;;
54665;SDS011;40566;50.006;36.180;2022-11-21T19:42:26;152.82;;;13.85;;
54665;SDS011;40566;50.006;36.180;2022-11-21T19:47:27;109.15;;;14.68;;
54665;SDS011;40566;50.006;36.180;2022-11-21T19:52:28;152.60;;;16.25;;
54665;SDS011;40566;50.006;36.180;2022-11-21T19:57:28;225.13;;;15.63;;
54665;SDS011;40566;50.006;36.180;2022-11-21T20:02:29;179.15;;;13.52;;
54665;SDS011;40566;50.006;36.180;2022-11-21T20:07:31;236.82;;;16.45;;
54665;SDS011;40566;50.006;36.180;2022-11-21T20:12:35;226.75;;;18.85;;
54665;SDS011;40566;50.006;36.180;2022-11-21T20:17:36;128.40;;;14.35;;
54665;SDS011;40566;50.006;36.180;2022-11-21T20:22:37;170.50;;;17.75;;
54665;SDS011;40566;50.006;36.180;2022-11-21T20:27:38;261.00;;;21.08;;
54665;SDS011;40566;50.006;36.180;2022-11-21T20:32:38;233.82;;;17.77;;
54665;SDS011;40566;50.006;36.180;2022-11-21T20:37:40;235.23;;;17.25;;
54665;SDS011;40566;50.006;36.180;2022-11-21T20:42:40;168.35;;;17.10;;
54665;SDS011;40566;50.006;36.180;2022-11-21T20:47:41;272.08;;;19.55;;
54665;SDS011;40566;50.006;36.180;2022-11-21T20:52:41;155.13;;;16.98;;
54665;SDS011;40566;50.006;36.180;2022-11-21T20:57:42;119.18;;;18.27;;
54665;SDS011;40566;50.006;36.180;2022-11-21T21:02:43;107.60;;;15.52;;
54665;SDS011;40566;50.006;36.180;2022-11-21T21:07:45;83.65;;;15.18;;
54665;SDS011;40566;50.006;36.180;2022-11-21T21:12:45;58.83;;;15.43;;
54665;SDS011;40566;50.006;36.180;2022-11-21T21:17:46;54.97;;;15.68;;
54665;SDS011;40566;50.006;36.180;2022-11-21T21:22:46;40.05;;;14.20;;
54665;SDS011;40566;50.006;36.180;2022-11-21T21:27:47;51.63;;;17.33;;
54665;SDS011;40566;50.006;36.180;2022-11-21T21:32:53;55.03;;;17.50;;
54665;SDS011;40566;50.006;36.180;2022-11-21T21:37:53;62.38;;;17.98;;
54665;SDS011;40566;50.006;36.180;2022-11-21T21:42:54;55.25;;;18.17;;
54665;SDS011;40566;50.006;36.180;2022-11-21T21:47:55;60.78;;;17.15;;
54665;SDS011;40566;50.006;36.180;2022-11-21T21:52:59;53.85;;;16.50;;
54665;SDS011;40566;50.006;36.180;2022-11-21T21:57:59;50.92;;;18.67;;
54665;SDS011;40566;50.006;36.180;2022-11-21T22:03:00;47.72;;;16.85;;
54665;SDS011;40566;50.006;36.180;2022-11-21T22:08:01;56.53;;;18.52;;
54665;SDS011;40566;50.006;36.180;2022-11-21T22:13:02;68.70;;;21.65;;
54665;SDS011;40566;50.006;36.180;2022-11-21T22:18:02;45.05;;;15.85;;
54665;SDS011;40566;50.006;36.180;2022-11-21T22:23:03;49.05;;;16.15;;
54665;SDS011;40566;50.006;36.180;2022-11-21T22:28:03;46.55;;;15.07;;
54665;SDS011;40566;50.006;36.180;2022-11-21T22:33:04;42.72;;;15.15;;
54665;SDS011;40566;50.006;36.180;2022-11-21T22:38:05;39.70;;;13.77;;
54665;SDS011;40566;50.006;36.180;2022-11-21T22:43:05;47.20;;;13.77;;
54665;SDS011;40566;50.006;36.180;2022-11-21T22:48:06;39.85;;;12.35;;
54665;SDS011;40566;50.006;36.180;2022-11-21T22:53:07;44.85;;;13.70;;
54665;SDS011;40566;50.006;36.180;2022-11-21T22:58:07;42.97;;;13.50;;
54665;SDS011;40566;50.006;36.180;2022-11-21T23:03:08;35.58;;;12.90;;
54665;SDS011;40566;50.006;36.180;2022-11-21T23:08:08;35.80;;;11.88;;
54665;SDS011;40566;50.006;36.180;2022-11-21T23:13:09;43.38;;;12.48;;
54665;SDS011;40566;50.006;36.180;2022-11-21T23:18:09;40.63;;;12.30;;
54665;SDS011;40566;50.006;36.180;2022-11-21T23:23:11;36.42;;;11.93;;
54665;SDS011;40566;50.006;36.180;2022-11-21T23:28:11;36.72;;;11.23;;
54665;SDS011;40566;50.006;36.180;2022-11-21T23:33:12;50.70;;;13.13;;
54665;SDS011;40566;50.006;36.180;2022-11-21T23:38:14;50.33;;;13.88;;
54665;SDS011;40566;50.006;36.180;2022-11-21T23:43:15;49.30;;;14.18;;
54665;SDS011;40566;50.006;36.180;2022-11-21T23:48:17;41.92;;;14.60;;
54665;SDS011;40566;50.006;36.180;2022-11-21T23:53:19;43.03;;;13.48;;
54665;SDS011;40566;50.006;36.180;2022-11-21T23:58:20;46.80;;;13.38;;
